DFSCM EDLT-EDDL
Flight info
| Callsign | DFSCM |
|---|---|
| Flight time | 0h 24m |
| Altitude | 11000 |
| Route | VFR |
| Aircraft | C208/L-V/N |
Departure
| Time | 2026-05-05 12:04 |
|---|---|
| Airport | Münster-Telgte Airfield (EDLT) |
Arrival
| Time | 2026-05-05 12:29 |
|---|---|
| Airport | Düsseldorf Airport (EDDL) |
| Time | Latitude | Longitude | Altitude | Speed | Heading |
|---|---|---|---|---|---|
| 2026-05-05 11:58 | 51.94386 | 7.77297 | 181 ft | 0 kts | 2° |
| 2026-05-05 12:00 | 51.94404 | 7.77319 | 181 ft | 5 kts | 76° |
| 2026-05-05 12:00 | 51.94402 | 7.77389 | 181 ft | 14 kts | 94° |
| 2026-05-05 12:01 | 51.94395 | 7.77545 | 181 ft | 13 kts | 92° |
| 2026-05-05 12:01 | 51.94393 | 7.77672 | 181 ft | 10 kts | 87° |
| 2026-05-05 12:01 | 51.94398 | 7.77771 | 181 ft | 8 kts | 78° |
| 2026-05-05 12:01 | 51.94398 | 7.77775 | 181 ft | 0 kts | 73° |
| 2026-05-05 12:02 | 51.94399 | 7.77777 | 181 ft | 4 kts | 72° |
| 2026-05-05 12:02 | 51.94434 | 7.77897 | 181 ft | 13 kts | 91° |
| 2026-05-05 12:03 | 51.94421 | 7.77966 | 181 ft | 3 kts | 233° |
| 2026-05-05 12:03 | 51.94427 | 7.77937 | 181 ft | 0 kts | 276° |
| 2026-05-05 12:04 | 51.94437 | 7.77696 | 182 ft | 53 kts | 274° |
| 2026-05-05 12:04 | 51.94481 | 7.76857 | 294 ft | 85 kts | 275° |
| 2026-05-05 12:04 | 51.94517 | 7.75907 | 597 ft | 86 kts | 265° |
| 2026-05-05 12:04 | 51.94414 | 7.74814 | 826 ft | 100 kts | 248° |
| 2026-05-05 12:05 | 51.93863 | 7.74152 | 1001 ft | 121 kts | 193° |
| 2026-05-05 12:05 | 51.93017 | 7.73479 | 1023 ft | 142 kts | 218° |
| 2026-05-05 12:05 | 51.92255 | 7.72564 | 1490 ft | 132 kts | 216° |
| 2026-05-05 12:05 | 51.91540 | 7.71737 | 1920 ft | 121 kts | 216° |
| 2026-05-05 12:06 | 51.90872 | 7.70978 | 2301 ft | 116 kts | 215° |
| 2026-05-05 12:06 | 51.90203 | 7.70216 | 2622 ft | 118 kts | 216° |
| 2026-05-05 12:06 | 51.89531 | 7.69451 | 3014 ft | 118 kts | 216° |
| 2026-05-05 12:06 | 51.88864 | 7.68696 | 3400 ft | 113 kts | 215° |
| 2026-05-05 12:07 | 51.88232 | 7.67995 | 3738 ft | 109 kts | 214° |
| 2026-05-05 12:07 | 51.87598 | 7.67287 | 4000 ft | 112 kts | 215° |
| 2026-05-05 12:07 | 51.87010 | 7.66520 | 4299 ft | 111 kts | 230° |
| 2026-05-05 12:07 | 51.86549 | 7.65536 | 4654 ft | 107 kts | 231° |
| 2026-05-05 12:08 | 51.86031 | 7.64672 | 4990 ft | 107 kts | 220° |
| 2026-05-05 12:08 | 51.85462 | 7.63927 | 5291 ft | 105 kts | 219° |
| 2026-05-05 12:08 | 51.84900 | 7.63179 | 5555 ft | 104 kts | 220° |
| 2026-05-05 12:08 | 51.84380 | 7.62367 | 5825 ft | 103 kts | 224° |
| 2026-05-05 12:09 | 51.83869 | 7.61568 | 6086 ft | 102 kts | 224° |
| 2026-05-05 12:09 | 51.83343 | 7.60738 | 6206 ft | 118 kts | 225° |
| 2026-05-05 12:09 | 51.82713 | 7.59687 | 6207 ft | 139 kts | 226° |
| 2026-05-05 12:09 | 51.82030 | 7.58530 | 6421 ft | 142 kts | 227° |
| 2026-05-05 12:10 | 51.81362 | 7.57405 | 6736 ft | 137 kts | 226° |
| 2026-05-05 12:10 | 51.80687 | 7.56269 | 6895 ft | 145 kts | 226° |
| 2026-05-05 12:10 | 51.79964 | 7.55048 | 7012 ft | 154 kts | 227° |
| 2026-05-05 12:10 | 51.79218 | 7.53779 | 7174 ft | 156 kts | 227° |
| 2026-05-05 12:11 | 51.78463 | 7.52497 | 7306 ft | 160 kts | 227° |
| 2026-05-05 12:11 | 51.77683 | 7.51165 | 7339 ft | 167 kts | 227° |
| 2026-05-05 12:11 | 51.76867 | 7.49764 | 7343 ft | 174 kts | 227° |
| 2026-05-05 12:11 | 51.76021 | 7.48316 | 7332 ft | 179 kts | 227° |
| 2026-05-05 12:12 | 51.75156 | 7.46836 | 7322 ft | 183 kts | 227° |
| 2026-05-05 12:12 | 51.74277 | 7.45323 | 7297 ft | 186 kts | 227° |
| 2026-05-05 12:12 | 51.73385 | 7.43800 | 7263 ft | 187 kts | 227° |
| 2026-05-05 12:12 | 51.72486 | 7.42264 | 7223 ft | 189 kts | 227° |
| 2026-05-05 12:13 | 51.71579 | 7.40723 | 7171 ft | 191 kts | 227° |
| 2026-05-05 12:13 | 51.70658 | 7.39157 | 7116 ft | 193 kts | 227° |
| 2026-05-05 12:13 | 51.69745 | 7.37609 | 7052 ft | 194 kts | 227° |
| 2026-05-05 12:13 | 51.68821 | 7.36025 | 6984 ft | 194 kts | 227° |
| 2026-05-05 12:14 | 51.67898 | 7.34434 | 6912 ft | 194 kts | 227° |
| 2026-05-05 12:14 | 51.66980 | 7.32844 | 6824 ft | 193 kts | 227° |
| 2026-05-05 12:14 | 51.66057 | 7.31258 | 6739 ft | 194 kts | 227° |
| 2026-05-05 12:14 | 51.65134 | 7.29671 | 6641 ft | 194 kts | 227° |
| 2026-05-05 12:15 | 51.64213 | 7.28084 | 6547 ft | 193 kts | 227° |
| 2026-05-05 12:15 | 51.63296 | 7.26532 | 6450 ft | 194 kts | 227° |
| 2026-05-05 12:15 | 51.62369 | 7.24959 | 6341 ft | 193 kts | 227° |
| 2026-05-05 12:15 | 51.61448 | 7.23388 | 6238 ft | 193 kts | 227° |
| 2026-05-05 12:16 | 51.60519 | 7.21823 | 6177 ft | 191 kts | 226° |
| 2026-05-05 12:16 | 51.59607 | 7.20282 | 6179 ft | 190 kts | 227° |
| 2026-05-05 12:16 | 51.58711 | 7.18762 | 6164 ft | 180 kts | 227° |
| 2026-05-05 12:16 | 51.57908 | 7.17349 | 6145 ft | 163 kts | 228° |
| 2026-05-05 12:17 | 51.57167 | 7.16057 | 6134 ft | 151 kts | 227° |
| 2026-05-05 12:17 | 51.56421 | 7.14793 | 6148 ft | 163 kts | 227° |
| 2026-05-05 12:17 | 51.55624 | 7.13440 | 6146 ft | 171 kts | 227° |
| 2026-05-05 12:17 | 51.54783 | 7.11987 | 5701 ft | 177 kts | 229° |
| 2026-05-05 12:18 | 51.53968 | 7.10529 | 5209 ft | 174 kts | 229° |
| 2026-05-05 12:18 | 51.53297 | 7.09174 | 4779 ft | 172 kts | 235° |
| 2026-05-05 12:18 | 51.52616 | 7.07590 | 4210 ft | 175 kts | 236° |
| 2026-05-05 12:18 | 51.51915 | 7.05970 | 3591 ft | 177 kts | 235° |
| 2026-05-05 12:19 | 51.51217 | 7.04339 | 2989 ft | 177 kts | 237° |
| 2026-05-05 12:19 | 51.50535 | 7.02692 | 2416 ft | 175 kts | 237° |
| 2026-05-05 12:19 | 51.49886 | 7.01183 | 2363 ft | 154 kts | 235° |
| 2026-05-05 12:19 | 51.49287 | 6.99836 | 2335 ft | 143 kts | 234° |
| 2026-05-05 12:20 | 51.48785 | 6.98491 | 2354 ft | 142 kts | 243° |
| 2026-05-05 12:20 | 51.48319 | 6.97090 | 2348 ft | 144 kts | 242° |
| 2026-05-05 12:20 | 51.47828 | 6.95696 | 2370 ft | 141 kts | 241° |
| 2026-05-05 12:20 | 51.47350 | 6.94334 | 2369 ft | 139 kts | 241° |
| 2026-05-05 12:21 | 51.46880 | 6.92988 | 2370 ft | 138 kts | 241° |
| 2026-05-05 12:21 | 51.46413 | 6.91653 | 2369 ft | 137 kts | 241° |
| 2026-05-05 12:21 | 51.45945 | 6.90313 | 2372 ft | 136 kts | 241° |
| 2026-05-05 12:21 | 51.45475 | 6.88971 | 2375 ft | 139 kts | 242° |
| 2026-05-05 12:22 | 51.45107 | 6.87530 | 2375 ft | 139 kts | 251° |
| 2026-05-05 12:22 | 51.44781 | 6.86088 | 2378 ft | 139 kts | 250° |
| 2026-05-05 12:22 | 51.44448 | 6.84633 | 2374 ft | 139 kts | 250° |
| 2026-05-05 12:22 | 51.44113 | 6.83177 | 2377 ft | 140 kts | 250° |
| 2026-05-05 12:23 | 51.43900 | 6.81661 | 2385 ft | 138 kts | 262° |
| 2026-05-05 12:23 | 51.43790 | 6.80126 | 2372 ft | 139 kts | 257° |
| 2026-05-05 12:23 | 51.43403 | 6.78736 | 2375 ft | 138 kts | 236° |
| 2026-05-05 12:23 | 51.42800 | 6.77544 | 2372 ft | 139 kts | 217° |
| 2026-05-05 12:24 | 51.41933 | 6.76904 | 2336 ft | 143 kts | 202° |
| 2026-05-05 12:24 | 51.40956 | 6.76443 | 2225 ft | 150 kts | 188° |
| 2026-05-05 12:24 | 51.39933 | 6.76826 | 2122 ft | 156 kts | 155° |
| 2026-05-05 12:24 | 51.38969 | 6.77636 | 2035 ft | 157 kts | 151° |
| 2026-05-05 12:25 | 51.38024 | 6.78498 | 1937 ft | 154 kts | 152° |
| 2026-05-05 12:25 | 51.37106 | 6.79316 | 1820 ft | 147 kts | 152° |
| 2026-05-05 12:25 | 51.36228 | 6.80106 | 1687 ft | 142 kts | 151° |
| 2026-05-05 12:25 | 51.35398 | 6.80859 | 1674 ft | 131 kts | 151° |
| 2026-05-05 12:26 | 51.34638 | 6.81547 | 1688 ft | 119 kts | 151° |
| 2026-05-05 12:26 | 51.33941 | 6.82189 | 1684 ft | 114 kts | 150° |
| 2026-05-05 12:26 | 51.33244 | 6.82840 | 1658 ft | 117 kts | 151° |
| 2026-05-05 12:26 | 51.32523 | 6.83370 | 1681 ft | 111 kts | 176° |
| 2026-05-05 12:27 | 51.31819 | 6.83093 | 1515 ft | 97 kts | 211° |
| 2026-05-05 12:27 | 51.31379 | 6.82343 | 1217 ft | 93 kts | 239° |
| 2026-05-05 12:27 | 51.31011 | 6.81540 | 998 ft | 87 kts | 233° |
| 2026-05-05 12:27 | 51.30642 | 6.80788 | 749 ft | 83 kts | 232° |
| 2026-05-05 12:28 | 51.30295 | 6.80078 | 589 ft | 81 kts | 232° |
| 2026-05-05 12:28 | 51.29952 | 6.79356 | 422 ft | 83 kts | 233° |
| 2026-05-05 12:28 | 51.29597 | 6.78625 | 287 ft | 84 kts | 233° |
| 2026-05-05 12:28 | 51.29237 | 6.77880 | 174 ft | 83 kts | 234° |
| 2026-05-05 12:29 | 51.28905 | 6.77185 | 128 ft | 70 kts | 234° |
| 2026-05-05 12:29 | 51.28668 | 6.76682 | 127 ft | 40 kts | 233° |
| 2026-05-05 12:29 | 51.28525 | 6.76380 | 128 ft | 37 kts | 231° |
| 2026-05-05 12:29 | 51.28378 | 6.76093 | 128 ft | 29 kts | 218° |
| 2026-05-05 12:30 | 51.28214 | 6.75964 | 126 ft | 24 kts | 203° |
| 2026-05-05 12:30 | 51.28084 | 6.75870 | 125 ft | 18 kts | 207° |
| 2026-05-05 12:30 | 51.28005 | 6.75757 | 128 ft | 14 kts | 232° |
| 2026-05-05 12:30 | 51.27933 | 6.75609 | 128 ft | 33 kts | 231° |
| 2026-05-05 12:31 | 51.27793 | 6.75314 | 123 ft | 21 kts | 232° |
| 2026-05-05 12:31 | 51.27701 | 6.75193 | 119 ft | 16 kts | 186° |
| 2026-05-05 12:31 | 51.27608 | 6.75165 | 119 ft | 9 kts | 221° |
| 2026-05-05 12:31 | 51.27601 | 6.75171 | 119 ft | 0 kts | 62° |